Krasnyj Chikoj, Russia
Current Conditions -  °F | °C
As of 6:00 PM on Friday 31 Oct 2014 (Local Time) from UIUU Reporting Station
Broken Clouds Broken Clouds  
Wind Chill: 30°   Ceiling: 10000
Heat Index: 36°   Visibility: 6mi
Dew Point: 19°   Wind: 7mph
Humidity: 52%   Direction: 280°W
Pressure: 30.09"   Gusts: NA
Location:  50.37°N, 108.75°E
Report Text: UIUU 310900Z 28003MPS 9999 BKN100 02/M07 Q1019 NOSIG RMKQFE719/0959 26CLRD60
Loading
Personal Weather Stations






























Interactive Weather Map
Tropical Storm Tracking
New forecast layout! Learn more

10-Day Weather Forecast

Advertisements
Track Severe Weather on mobile